sensor_id;sensor_type;location;lat;lon;timestamp;pressure;altitude;pressure_sealevel;temperature;humidity
76460;BME280;65299;46.084;18.762;2023-12-14T00:02:42;99320.31;;;9.65;87.36
76460;BME280;65299;46.084;18.762;2023-12-14T00:05:42;99306.41;;;9.55;87.81
76460;BME280;65299;46.084;18.762;2023-12-14T00:08:43;99305.09;;;9.52;87.54
76460;BME280;65299;46.084;18.762;2023-12-14T00:11:43;99300.59;;;9.53;87.80
76460;BME280;65299;46.084;18.762;2023-12-14T00:14:44;99290.84;;;9.48;87.52
76460;BME280;65299;46.084;18.762;2023-12-14T00:17:44;99306.34;;;9.60;87.26
76460;BME280;65299;46.084;18.762;2023-12-14T00:20:44;99303.06;;;9.44;87.91
76460;BME280;65299;46.084;18.762;2023-12-14T00:23:45;99297.88;;;9.58;87.45
76460;BME280;65299;46.084;18.762;2023-12-14T00:26:45;99304.69;;;9.40;87.83
76460;BME280;65299;46.084;18.762;2023-12-14T00:29:46;99313.34;;;9.46;87.59
76460;BME280;65299;46.084;18.762;2023-12-14T00:32:46;99321.84;;;9.43;87.85
76460;BME280;65299;46.084;18.762;2023-12-14T00:35:47;99328.25;;;9.37;87.73
76460;BME280;65299;46.084;18.762;2023-12-14T00:38:47;99330.03;;;9.46;87.44
76460;BME280;65299;46.084;18.762;2023-12-14T00:41:47;99340.44;;;9.66;86.91
76460;BME280;65299;46.084;18.762;2023-12-14T00:44:48;99339.38;;;9.67;86.67
76460;BME280;65299;46.084;18.762;2023-12-14T00:47:48;99351.34;;;9.65;86.50
76460;BME280;65299;46.084;18.762;2023-12-14T00:50:49;99370.72;;;9.60;86.42
76460;BME280;65299;46.084;18.762;2023-12-14T00:53:49;99373.66;;;9.54;86.74
76460;BME280;65299;46.084;18.762;2023-12-14T00:56:49;99381.13;;;9.80;85.62
76460;BME280;65299;46.084;18.762;2023-12-14T00:59:50;99390.19;;;9.74;85.79
76460;BME280;65299;46.084;18.762;2023-12-14T01:02:50;99407.63;;;9.80;85.70
76460;BME280;65299;46.084;18.762;2023-12-14T01:05:51;99402.22;;;9.90;85.36
76460;BME280;65299;46.084;18.762;2023-12-14T01:08:51;99405.38;;;9.92;84.94
76460;BME280;65299;46.084;18.762;2023-12-14T01:11:51;99401.72;;;9.88;84.93
76460;BME280;65299;46.084;18.762;2023-12-14T01:14:52;99396.00;;;9.76;85.55
76460;BME280;65299;46.084;18.762;2023-12-14T01:17:52;99390.97;;;9.75;85.18
76460;BME280;65299;46.084;18.762;2023-12-14T01:20:53;99396.53;;;9.73;85.46
76460;BME280;65299;46.084;18.762;2023-12-14T01:23:53;99391.81;;;9.70;85.46
76460;BME280;65299;46.084;18.762;2023-12-14T01:26:53;99386.69;;;9.79;85.26
76460;BME280;65299;46.084;18.762;2023-12-14T01:29:54;99390.63;;;9.81;84.99
76460;BME280;65299;46.084;18.762;2023-12-14T01:32:55;99381.72;;;9.72;85.56
76460;BME280;65299;46.084;18.762;2023-12-14T01:35:55;99389.44;;;9.69;85.64
76460;BME280;65299;46.084;18.762;2023-12-14T01:38:55;99390.13;;;9.79;85.28
76460;BME280;65299;46.084;18.762;2023-12-14T01:41:56;99390.63;;;9.81;85.07
76460;BME280;65299;46.084;18.762;2023-12-14T01:44:56;99384.31;;;9.77;85.15
76460;BME280;65299;46.084;18.762;2023-12-14T01:47:57;99364.72;;;9.78;84.88
76460;BME280;65299;46.084;18.762;2023-12-14T01:50:57;99347.66;;;9.89;84.33
76460;BME280;65299;46.084;18.762;2023-12-14T01:53:57;99332.59;;;9.85;84.35
76460;BME280;65299;46.084;18.762;2023-12-14T01:56:58;99327.25;;;9.61;85.27
76460;BME280;65299;46.084;18.762;2023-12-14T01:59:58;99336.22;;;9.65;85.53
76460;BME280;65299;46.084;18.762;2023-12-14T02:02:59;99329.56;;;9.68;84.93
76460;BME280;65299;46.084;18.762;2023-12-14T02:05:59;99351.16;;;9.51;84.94
76460;BME280;65299;46.084;18.762;2023-12-14T02:09:01;99367.16;;;9.41;85.39
76460;BME280;65299;46.084;18.762;2023-12-14T02:12:01;99367.44;;;9.40;85.81
76460;BME280;65299;46.084;18.762;2023-12-14T02:15:02;99360.13;;;9.55;85.43
76460;BME280;65299;46.084;18.762;2023-12-14T02:18:02;99374.66;;;9.63;84.57
76460;BME280;65299;46.084;18.762;2023-12-14T02:21:03;99380.31;;;9.51;84.94
76460;BME280;65299;46.084;18.762;2023-12-14T02:24:04;99390.00;;;9.66;84.71
76460;BME280;65299;46.084;18.762;2023-12-14T02:27:04;99391.25;;;9.73;84.32
76460;BME280;65299;46.084;18.762;2023-12-14T02:30:05;99404.78;;;9.72;84.29
76460;BME280;65299;46.084;18.762;2023-12-14T02:33:06;99398.66;;;9.71;83.63
76460;BME280;65299;46.084;18.762;2023-12-14T02:36:06;99399.28;;;9.63;84.21
76460;BME280;65299;46.084;18.762;2023-12-14T02:39:07;99405.75;;;9.52;84.72
76460;BME280;65299;46.084;18.762;2023-12-14T02:42:07;99400.00;;;9.40;85.07
76460;BME280;65299;46.084;18.762;2023-12-14T02:45:08;99407.69;;;9.37;85.39
76460;BME280;65299;46.084;18.762;2023-12-14T02:48:09;99412.06;;;9.17;86.07
76460;BME280;65299;46.084;18.762;2023-12-14T02:51:13;99413.31;;;9.30;85.99
76460;BME280;65299;46.084;18.762;2023-12-14T02:54:14;99431.69;;;9.11;86.94
76460;BME280;65299;46.084;18.762;2023-12-14T02:57:15;99435.31;;;9.26;86.18
76460;BME280;65299;46.084;18.762;2023-12-14T03:00:15;99434.38;;;9.45;84.77
76460;BME280;65299;46.084;18.762;2023-12-14T03:03:16;99415.13;;;9.68;84.22
76460;BME280;65299;46.084;18.762;2023-12-14T03:06:16;99420.34;;;9.78;83.60
76460;BME280;65299;46.084;18.762;2023-12-14T03:09:17;99425.50;;;9.65;83.80
76460;BME280;65299;46.084;18.762;2023-12-14T03:12:19;99444.06;;;9.65;83.74
76460;BME280;65299;46.084;18.762;2023-12-14T03:15:19;99449.22;;;9.80;83.42
76460;BME280;65299;46.084;18.762;2023-12-14T03:18:20;99448.00;;;9.96;83.36
76460;BME280;65299;46.084;18.762;2023-12-14T03:21:20;99445.84;;;9.69;83.46
76460;BME280;65299;46.084;18.762;2023-12-14T03:24:21;99461.50;;;9.71;83.10
76460;BME280;65299;46.084;18.762;2023-12-14T03:27:21;99464.91;;;9.71;82.96
76460;BME280;65299;46.084;18.762;2023-12-14T03:30:23;99469.09;;;9.77;82.37
76460;BME280;65299;46.084;18.762;2023-12-14T03:33:23;99467.63;;;9.66;83.38
76460;BME280;65299;46.084;18.762;2023-12-14T03:36:24;99467.63;;;9.66;83.14
76460;BME280;65299;46.084;18.762;2023-12-14T03:39:26;99477.34;;;9.76;83.23
76460;BME280;65299;46.084;18.762;2023-12-14T03:42:27;99489.78;;;9.75;83.08
76460;BME280;65299;46.084;18.762;2023-12-14T03:45:28;99486.53;;;9.83;82.95
76460;BME280;65299;46.084;18.762;2023-12-14T03:48:28;99496.97;;;9.70;83.33
76460;BME280;65299;46.084;18.762;2023-12-14T03:51:28;99492.34;;;9.85;83.23
76460;BME280;65299;46.084;18.762;2023-12-14T03:54:29;99488.13;;;9.89;82.60
76460;BME280;65299;46.084;18.762;2023-12-14T03:57:29;99490.03;;;9.79;83.48
76460;BME280;65299;46.084;18.762;2023-12-14T04:00:30;99490.44;;;9.62;83.62
76460;BME280;65299;46.084;18.762;2023-12-14T04:03:30;99510.44;;;9.40;84.36
76460;BME280;65299;46.084;18.762;2023-12-14T04:06:30;99519.09;;;9.50;84.42
76460;BME280;65299;46.084;18.762;2023-12-14T04:09:31;99518.25;;;9.60;83.58
76460;BME280;65299;46.084;18.762;2023-12-14T04:12:31;99520.91;;;9.60;83.77
76460;BME280;65299;46.084;18.762;2023-12-14T04:15:31;99510.66;;;9.82;83.41
76460;BME280;65299;46.084;18.762;2023-12-14T04:18:32;99517.81;;;9.86;83.02
76460;BME280;65299;46.084;18.762;2023-12-14T04:21:32;99525.38;;;9.64;83.26
76460;BME280;65299;46.084;18.762;2023-12-14T04:24:33;99532.75;;;9.24;85.38
76460;BME280;65299;46.084;18.762;2023-12-14T04:27:34;99537.78;;;9.25;85.58
76460;BME280;65299;46.084;18.762;2023-12-14T04:30:34;99543.47;;;9.52;84.96
76460;BME280;65299;46.084;18.762;2023-12-14T04:33:34;99533.41;;;9.49;84.72
76460;BME280;65299;46.084;18.762;2023-12-14T04:36:35;99522.88;;;9.83;83.50
76460;BME280;65299;46.084;18.762;2023-12-14T04:39:35;99527.13;;;9.79;83.26
76460;BME280;65299;46.084;18.762;2023-12-14T04:42:36;99522.50;;;9.94;82.64
76460;BME280;65299;46.084;18.762;2023-12-14T04:45:36;99531.41;;;10.09;82.34
76460;BME280;65299;46.084;18.762;2023-12-14T04:48:36;99532.22;;;10.09;82.21
76460;BME280;65299;46.084;18.762;2023-12-14T04:51:37;99536.03;;;9.93;82.16
76460;BME280;65299;46.084;18.762;2023-12-14T04:54:37;99543.28;;;9.82;83.02
76460;BME280;65299;46.084;18.762;2023-12-14T04:57:40;99560.81;;;9.73;83.35
76460;BME280;65299;46.084;18.762;2023-12-14T05:00:41;99560.34;;;9.61;83.72
76460;BME280;65299;46.084;18.762;2023-12-14T05:03:41;99566.31;;;9.33;84.78
76460;BME280;65299;46.084;18.762;2023-12-14T05:06:41;99565.19;;;9.49;84.56
76460;BME280;65299;46.084;18.762;2023-12-14T05:09:42;99570.44;;;9.59;83.90
76460;BME280;65299;46.084;18.762;2023-12-14T05:12:42;99570.88;;;9.76;83.40
76460;BME280;65299;46.084;18.762;2023-12-14T05:15:43;99581.53;;;9.61;83.97
76460;BME280;65299;46.084;18.762;2023-12-14T05:18:43;99598.00;;;9.58;83.77
76460;BME280;65299;46.084;18.762;2023-12-14T05:21:43;99596.63;;;9.66;83.49
76460;BME280;65299;46.084;18.762;2023-12-14T05:24:46;99593.13;;;9.75;83.08
76460;BME280;65299;46.084;18.762;2023-12-14T05:27:47;99592.13;;;9.61;83.46
76460;BME280;65299;46.084;18.762;2023-12-14T05:30:47;99608.59;;;9.58;83.65
76460;BME280;65299;46.084;18.762;2023-12-14T05:33:48;99595.94;;;9.45;84.42
76460;BME280;65299;46.084;18.762;2023-12-14T05:36:48;99614.50;;;9.40;85.10
76460;BME280;65299;46.084;18.762;2023-12-14T05:39:48;99616.88;;;9.47;84.95
76460;BME280;65299;46.084;18.762;2023-12-14T05:42:49;99621.31;;;9.51;84.69
76460;BME280;65299;46.084;18.762;2023-12-14T05:45:49;99630.28;;;9.65;84.08
76460;BME280;65299;46.084;18.762;2023-12-14T05:48:50;99627.41;;;9.57;84.71
76460;BME280;65299;46.084;18.762;2023-12-14T05:51:51;99624.72;;;9.62;84.17
76460;BME280;65299;46.084;18.762;2023-12-14T05:54:51;99631.28;;;9.74;83.96
76460;BME280;65299;46.084;18.762;2023-12-14T05:57:51;99631.41;;;9.54;84.67
76460;BME280;65299;46.084;18.762;2023-12-14T06:00:52;99632.66;;;9.67;84.64
76460;BME280;65299;46.084;18.762;2023-12-14T06:03:53;99644.25;;;9.81;83.83
76460;BME280;65299;46.084;18.762;2023-12-14T06:06:53;99639.66;;;9.96;83.27
76460;BME280;65299;46.084;18.762;2023-12-14T06:09:54;99649.59;;;9.71;83.77
76460;BME280;65299;46.084;18.762;2023-12-14T06:12:54;99648.47;;;9.87;83.27
76460;BME280;65299;46.084;18.762;2023-12-14T06:15:54;99646.06;;;9.85;83.16
76460;BME280;65299;46.084;18.762;2023-12-14T06:18:55;99649.03;;;9.74;83.54
76460;BME280;65299;46.084;18.762;2023-12-14T06:21:56;99656.22;;;9.68;83.81
76460;BME280;65299;46.084;18.762;2023-12-14T06:24:56;99658.59;;;9.70;83.59
76460;BME280;65299;46.084;18.762;2023-12-14T06:27:56;99672.03;;;9.83;83.27
76460;BME280;65299;46.084;18.762;2023-12-14T06:30:57;99683.66;;;9.97;82.58
76460;BME280;65299;46.084;18.762;2023-12-14T06:33:57;99683.16;;;9.90;82.64
76460;BME280;65299;46.084;18.762;2023-12-14T06:37:00;99685.28;;;9.93;82.00
76460;BME280;65299;46.084;18.762;2023-12-14T06:40:03;99698.97;;;10.11;81.66
76460;BME280;65299;46.084;18.762;2023-12-14T06:43:06;99711.41;;;10.15;81.28
76460;BME280;65299;46.084;18.762;2023-12-14T06:46:07;99718.88;;;10.03;81.59
76460;BME280;65299;46.084;18.762;2023-12-14T06:49:08;99720.81;;;9.87;82.34
76460;BME280;65299;46.084;18.762;2023-12-14T06:52:08;99728.00;;;9.72;81.86
76460;BME280;65299;46.084;18.762;2023-12-14T06:55:09;99730.94;;;9.70;81.56
76460;BME280;65299;46.084;18.762;2023-12-14T06:58:11;99729.13;;;9.56;82.74
76460;BME280;65299;46.084;18.762;2023-12-14T07:01:15;99727.31;;;9.41;83.55
76460;BME280;65299;46.084;18.762;2023-12-14T07:04:16;99733.63;;;9.60;83.25
76460;BME280;65299;46.084;18.762;2023-12-14T07:07:16;99742.59;;;9.69;83.48
76460;BME280;65299;46.084;18.762;2023-12-14T07:10:17;99744.34;;;9.94;83.06
76460;BME280;65299;46.084;18.762;2023-12-14T07:13:17;99748.56;;;10.00;82.79
76460;BME280;65299;46.084;18.762;2023-12-14T07:16:18;99756.78;;;10.03;81.91
76460;BME280;65299;46.084;18.762;2023-12-14T07:19:18;99761.13;;;9.69;82.71
76460;BME280;65299;46.084;18.762;2023-12-14T07:22:19;99771.69;;;9.89;83.15
76460;BME280;65299;46.084;18.762;2023-12-14T07:25:19;99772.75;;;9.83;82.46
76460;BME280;65299;46.084;18.762;2023-12-14T07:28:20;99782.22;;;10.04;81.73
76460;BME280;65299;46.084;18.762;2023-12-14T07:31:20;99781.69;;;10.08;81.84
76460;BME280;65299;46.084;18.762;2023-12-14T07:34:21;99799.16;;;10.24;81.55
76460;BME280;65299;46.084;18.762;2023-12-14T07:37:21;99802.38;;;10.11;81.57
76460;BME280;65299;46.084;18.762;2023-12-14T07:40:22;99802.84;;;10.23;81.12
76460;BME280;65299;46.084;18.762;2023-12-14T07:43:22;99794.44;;;10.00;81.74
76460;BME280;65299;46.084;18.762;2023-12-14T07:46:23;99789.13;;;10.00;82.16
76460;BME280;65299;46.084;18.762;2023-12-14T07:49:23;99800.78;;;10.04;82.37
76460;BME280;65299;46.084;18.762;2023-12-14T07:52:24;99802.38;;;10.16;81.43
76460;BME280;65299;46.084;18.762;2023-12-14T07:55:24;99803.66;;;10.18;81.86
76460;BME280;65299;46.084;18.762;2023-12-14T07:58:25;99803.31;;;10.40;81.17
76460;BME280;65299;46.084;18.762;2023-12-14T08:01:26;99814.16;;;10.48;80.70
76460;BME280;65299;46.084;18.762;2023-12-14T08:04:26;99817.22;;;10.65;80.70
76460;BME280;65299;46.084;18.762;2023-12-14T08:07:27;99830.59;;;10.45;80.40
76460;BME280;65299;46.084;18.762;2023-12-14T08:10:30;99825.88;;;10.42;80.38
76460;BME280;65299;46.084;18.762;2023-12-14T08:13:30;99818.09;;;10.51;80.50
76460;BME280;65299;46.084;18.762;2023-12-14T08:16:30;99818.44;;;10.39;81.01
76460;BME280;65299;46.084;18.762;2023-12-14T08:19:31;99825.59;;;10.39;80.29
76460;BME280;65299;46.084;18.762;2023-12-14T08:22:32;99836.25;;;10.29;81.17
76460;BME280;65299;46.084;18.762;2023-12-14T08:25:32;99831.94;;;10.48;80.87
76460;BME280;65299;46.084;18.762;2023-12-14T08:28:33;99845.84;;;10.73;79.91
76460;BME280;65299;46.084;18.762;2023-12-14T08:31:34;99854.63;;;10.69;78.96
76460;BME280;65299;46.084;18.762;2023-12-14T08:34:34;99862.22;;;10.37;80.87
76460;BME280;65299;46.084;18.762;2023-12-14T08:37:35;99868.56;;;10.41;80.50
76460;BME280;65299;46.084;18.762;2023-12-14T08:40:36;99865.38;;;10.39;81.27
76460;BME280;65299;46.084;18.762;2023-12-14T08:43:37;99870.41;;;10.45;80.63
76460;BME280;65299;46.084;18.762;2023-12-14T08:46:45;99879.16;;;10.41;80.55
76460;BME280;65299;46.084;18.762;2023-12-14T08:49:46;99876.59;;;10.21;81.08
76460;BME280;65299;46.084;18.762;2023-12-14T08:52:47;99885.03;;;10.38;80.75
76460;BME280;65299;46.084;18.762;2023-12-14T08:55:48;99886.00;;;10.57;80.09
76460;BME280;65299;46.084;18.762;2023-12-14T08:58:48;99890.28;;;10.48;79.65
76460;BME280;65299;46.084;18.762;2023-12-14T09:01:49;99889.44;;;10.62;79.19
76460;BME280;65299;46.084;18.762;2023-12-14T09:04:49;99893.97;;;10.57;79.11
76460;BME280;65299;46.084;18.762;2023-12-14T09:07:49;99894.44;;;10.69;79.29
76460;BME280;65299;46.084;18.762;2023-12-14T09:10:54;99909.09;;;10.56;79.69
76460;BME280;65299;46.084;18.762;2023-12-14T09:13:55;99919.34;;;10.83;78.61
76460;BME280;65299;46.084;18.762;2023-12-14T09:16:55;99926.47;;;10.88;77.91
76460;BME280;65299;46.084;18.762;2023-12-14T09:19:56;99920.84;;;10.99;78.00
76460;BME280;65299;46.084;18.762;2023-12-14T09:22:56;99917.97;;;10.85;77.45
76460;BME280;65299;46.084;18.762;2023-12-14T09:25:57;99921.19;;;10.82;78.47
76460;BME280;65299;46.084;18.762;2023-12-14T09:28:59;99929.22;;;10.72;79.08
76460;BME280;65299;46.084;18.762;2023-12-14T09:31:59;99927.31;;;10.73;79.08
76460;BME280;65299;46.084;18.762;2023-12-14T09:35:00;99933.75;;;10.62;79.96
76460;BME280;65299;46.084;18.762;2023-12-14T09:38:00;99935.88;;;10.55;79.00
76460;BME280;65299;46.084;18.762;2023-12-14T09:41:01;99931.09;;;10.62;79.76
76460;BME280;65299;46.084;18.762;2023-12-14T09:44:02;99931.19;;;10.27;79.41
76460;BME280;65299;46.084;18.762;2023-12-14T09:47:04;99931.44;;;10.40;79.67
76460;BME280;65299;46.084;18.762;2023-12-14T09:50:05;99937.59;;;10.26;78.94
76460;BME280;65299;46.084;18.762;2023-12-14T09:53:06;99935.44;;;10.33;79.27
76460;BME280;65299;46.084;18.762;2023-12-14T09:56:08;99933.84;;;10.32;78.79
76460;BME280;65299;46.084;18.762;2023-12-14T09:59:08;99934.88;;;10.46;78.59
76460;BME280;65299;46.084;18.762;2023-12-14T10:02:11;99934.00;;;10.70;78.82
76460;BME280;65299;46.084;18.762;2023-12-14T10:05:12;99935.31;;;10.63;79.35
76460;BME280;65299;46.084;18.762;2023-12-14T10:08:13;99942.34;;;10.29;79.01
76460;BME280;65299;46.084;18.762;2023-12-14T10:11:16;99936.22;;;10.28;79.23
76460;BME280;65299;46.084;18.762;2023-12-14T10:14:21;99949.50;;;10.33;79.57
76460;BME280;65299;46.084;18.762;2023-12-14T10:17:22;99948.16;;;10.31;78.78
76460;BME280;65299;46.084;18.762;2023-12-14T10:20:29;99950.28;;;10.34;79.03
76460;BME280;65299;46.084;18.762;2023-12-14T10:23:30;99953.50;;;10.21;78.66
76460;BME280;65299;46.084;18.762;2023-12-14T10:26:31;99955.00;;;10.52;78.34
76460;BME280;65299;46.084;18.762;2023-12-14T10:29:32;99963.81;;;10.42;77.59
76460;BME280;65299;46.084;18.762;2023-12-14T10:32:34;99961.34;;;10.66;77.34
76460;BME280;65299;46.084;18.762;2023-12-14T10:35:35;99965.06;;;10.55;77.69
76460;BME280;65299;46.084;18.762;2023-12-14T10:38:37;99965.81;;;10.75;77.07
76460;BME280;65299;46.084;18.762;2023-12-14T10:41:39;99983.09;;;10.63;76.55
76460;BME280;65299;46.084;18.762;2023-12-14T10:44:39;99981.31;;;10.48;77.01
76460;BME280;65299;46.084;18.762;2023-12-14T10:47:43;99976.22;;;10.62;76.82
76460;BME280;65299;46.084;18.762;2023-12-14T10:50:44;99975.63;;;10.80;76.53
76460;BME280;65299;46.084;18.762;2023-12-14T10:53:45;99980.97;;;10.70;76.48
76460;BME280;65299;46.084;18.762;2023-12-14T10:56:49;99982.25;;;10.77;76.66
76460;BME280;65299;46.084;18.762;2023-12-14T10:59:50;99976.19;;;10.72;76.87
76460;BME280;65299;46.084;18.762;2023-12-14T11:02:57;99978.88;;;10.62;77.18
76460;BME280;65299;46.084;18.762;2023-12-14T11:05:57;99976.22;;;10.62;77.20
76460;BME280;65299;46.084;18.762;2023-12-14T11:09:06;99972.91;;;10.95;75.86
76460;BME280;65299;46.084;18.762;2023-12-14T11:12:06;99974.75;;;10.95;75.49
76460;BME280;65299;46.084;18.762;2023-12-14T11:15:09;99982.13;;;11.08;75.16
76460;BME280;65299;46.084;18.762;2023-12-14T11:21:18;99996.75;;;11.54;74.86
76460;BME280;65299;46.084;18.762;2023-12-14T11:24:20;99984.19;;;11.64;73.63
76460;BME280;65299;46.084;18.762;2023-12-14T11:27:26;99982.75;;;11.38;74.61
76460;BME280;65299;46.084;18.762;2023-12-14T11:30:28;100002.06;;;11.05;73.92
76460;BME280;65299;46.084;18.762;2023-12-14T11:33:28;99992.03;;;10.92;74.47
76460;BME280;65299;46.084;18.762;2023-12-14T11:36:29;99990.38;;;11.06;75.36
76460;BME280;65299;46.084;18.762;2023-12-14T11:39:31;99990.34;;;11.11;73.33
76460;BME280;65299;46.084;18.762;2023-12-14T11:42:32;100006.34;;;10.96;73.61
76460;BME280;65299;46.084;18.762;2023-12-14T11:45:33;100003.88;;;11.10;74.34
76460;BME280;65299;46.084;18.762;2023-12-14T11:48:33;100008.50;;;10.89;73.81
76460;BME280;65299;46.084;18.762;2023-12-14T11:51:34;100004.59;;;10.66;75.11
76460;BME280;65299;46.084;18.762;2023-12-14T11:54:37;100008.78;;;10.77;75.63
76460;BME280;65299;46.084;18.762;2023-12-14T11:57:37;100009.09;;;10.66;76.44
76460;BME280;65299;46.084;18.762;2023-12-14T12:00:38;100012.34;;;10.48;76.05
76460;BME280;65299;46.084;18.762;2023-12-14T12:03:40;100020.78;;;10.70;75.63
76460;BME280;65299;46.084;18.762;2023-12-14T12:06:40;100021.91;;;10.44;75.95
76460;BME280;65299;46.084;18.762;2023-12-14T12:09:42;100024.28;;;10.45;75.91
76460;BME280;65299;46.084;18.762;2023-12-14T12:12:43;100017.31;;;10.74;75.82
76460;BME280;65299;46.084;18.762;2023-12-14T12:15:44;100009.13;;;10.56;75.71
76460;BME280;65299;46.084;18.762;2023-12-14T12:18:44;100007.50;;;10.70;74.86
76460;BME280;65299;46.084;18.762;2023-12-14T12:21:45;100012.25;;;10.73;74.63
76460;BME280;65299;46.084;18.762;2023-12-14T12:24:45;100012.53;;;10.71;74.32
76460;BME280;65299;46.084;18.762;2023-12-14T12:27:46;100017.31;;;10.74;74.88
76460;BME280;65299;46.084;18.762;2023-12-14T12:30:47;100017.31;;;10.74;74.42
76460;BME280;65299;46.084;18.762;2023-12-14T12:33:48;100026.88;;;10.70;74.14
76460;BME280;65299;46.084;18.762;2023-12-14T12:36:48;100030.81;;;10.88;73.74
76460;BME280;65299;46.084;18.762;2023-12-14T12:39:49;100027.06;;;10.94;73.54
76460;BME280;65299;46.084;18.762;2023-12-14T12:42:49;100029.06;;;11.22;73.09
76460;BME280;65299;46.084;18.762;2023-12-14T12:45:50;100039.44;;;11.14;72.94
76460;BME280;65299;46.084;18.762;2023-12-14T12:48:50;100039.22;;;11.10;72.76
76460;BME280;65299;46.084;18.762;2023-12-14T12:51:51;100042.97;;;11.04;72.55
76460;BME280;65299;46.084;18.762;2023-12-14T12:54:52;100038.75;;;10.88;72.25
76460;BME280;65299;46.084;18.762;2023-12-14T12:57:52;100031.53;;;11.04;72.25
76460;BME280;65299;46.084;18.762;2023-12-14T13:00:53;100042.19;;;10.99;72.01
76460;BME280;65299;46.084;18.762;2023-12-14T13:03:54;100055.22;;;10.90;72.43
76460;BME280;65299;46.084;18.762;2023-12-14T13:06:56;100066.38;;;10.87;72.47
76460;BME280;65299;46.084;18.762;2023-12-14T13:09:57;100067.47;;;10.71;72.01
76460;BME280;65299;46.084;18.762;2023-12-14T13:12:58;100073.59;;;10.61;73.02
76460;BME280;65299;46.084;18.762;2023-12-14T13:15:58;100089.25;;;10.63;72.77
76460;BME280;65299;46.084;18.762;2023-12-14T13:18:59;100087.13;;;10.45;73.09
76460;BME280;65299;46.084;18.762;2023-12-14T13:21:59;100091.91;;;10.58;72.83
76460;BME280;65299;46.084;18.762;2023-12-14T13:25:02;100095.34;;;10.63;72.70
76460;BME280;65299;46.084;18.762;2023-12-14T13:28:03;100090.84;;;10.74;72.81
76460;BME280;65299;46.084;18.762;2023-12-14T13:31:05;100089.28;;;10.48;72.85
76460;BME280;65299;46.084;18.762;2023-12-14T13:34:06;100088.72;;;10.51;72.98
76460;BME280;65299;46.084;18.762;2023-12-14T13:37:06;100096.69;;;10.61;72.88
76460;BME280;65299;46.084;18.762;2023-12-14T13:40:09;100101.72;;;10.67;72.81
76460;BME280;65299;46.084;18.762;2023-12-14T13:43:10;100106.50;;;10.60;73.23
76460;BME280;65299;46.084;18.762;2023-12-14T13:46:11;100108.34;;;10.65;73.39
76460;BME280;65299;46.084;18.762;2023-12-14T13:49:11;100112.06;;;10.69;73.24
76460;BME280;65299;46.084;18.762;2023-12-14T13:52:12;100113.16;;;10.58;73.91
76460;BME280;65299;46.084;18.762;2023-12-14T13:55:12;100116.84;;;10.57;73.93
76460;BME280;65299;46.084;18.762;2023-12-14T13:58:13;100125.59;;;10.67;73.43
76460;BME280;65299;46.084;18.762;2023-12-14T14:01:13;100130.94;;;10.62;73.23
76460;BME280;65299;46.084;18.762;2023-12-14T14:04:14;100139.94;;;10.66;73.42
76460;BME280;65299;46.084;18.762;2023-12-14T14:07:14;100138.63;;;10.54;73.42
76460;BME280;65299;46.084;18.762;2023-12-14T14:10:15;100137.56;;;10.50;73.66
76460;BME280;65299;46.084;18.762;2023-12-14T14:13:15;100145.50;;;10.45;73.93
76460;BME280;65299;46.084;18.762;2023-12-14T14:16:16;100135.97;;;10.34;74.01
76460;BME280;65299;46.084;18.762;2023-12-14T14:19:16;100143.91;;;10.29;73.93
76460;BME280;65299;46.084;18.762;2023-12-14T14:22:17;100147.09;;;10.26;74.37
76460;BME280;65299;46.084;18.762;2023-12-14T14:25:17;100139.38;;;10.14;74.90
76460;BME280;65299;46.084;18.762;2023-12-14T14:28:18;100156.09;;;10.15;75.09
76460;BME280;65299;46.084;18.762;2023-12-14T14:31:18;100149.38;;;9.92;75.57
76460;BME280;65299;46.084;18.762;2023-12-14T14:34:18;100159.75;;;9.98;75.81
76460;BME280;65299;46.084;18.762;2023-12-14T14:37:20;100169.78;;;9.86;75.52
76460;BME280;65299;46.084;18.762;2023-12-14T14:40:21;100177.22;;;9.89;75.51
76460;BME280;65299;46.084;18.762;2023-12-14T14:43:22;100184.06;;;9.85;75.49
76460;BME280;65299;46.084;18.762;2023-12-14T14:46:23;100195.94;;;9.68;75.75
76460;BME280;65299;46.084;18.762;2023-12-14T14:49:23;100199.94;;;9.70;75.56
76460;BME280;65299;46.084;18.762;2023-12-14T14:52:24;100198.78;;;9.51;75.43
76460;BME280;65299;46.084;18.762;2023-12-14T14:55:24;100210.50;;;9.60;75.34
76460;BME280;65299;46.084;18.762;2023-12-14T14:58:26;100215.22;;;9.53;75.47
76460;BME280;65299;46.084;18.762;2023-12-14T15:01:26;100217.81;;;9.43;75.59
76460;BME280;65299;46.084;18.762;2023-12-14T15:04:27;100220.47;;;9.43;75.58
76460;BME280;65299;46.084;18.762;2023-12-14T15:07:27;100214.59;;;9.36;75.81
76460;BME280;65299;46.084;18.762;2023-12-14T15:10:29;100228.63;;;9.37;76.04
76460;BME280;65299;46.084;18.762;2023-12-14T15:13:29;100237.09;;;9.34;75.88
76460;BME280;65299;46.084;18.762;2023-12-14T15:16:30;100249.03;;;9.36;75.71
76460;BME280;65299;46.084;18.762;2023-12-14T15:19:30;100254.75;;;9.18;76.57
76460;BME280;65299;46.084;18.762;2023-12-14T15:22:31;100259.78;;;9.19;76.45
76460;BME280;65299;46.084;18.762;2023-12-14T15:25:31;100264.72;;;9.06;77.03
76460;BME280;65299;46.084;18.762;2023-12-14T15:28:31;100272.00;;;9.26;76.12
76460;BME280;65299;46.084;18.762;2023-12-14T15:31:32;100278.03;;;9.16;76.41
76460;BME280;65299;46.084;18.762;2023-12-14T15:34:32;100270.50;;;9.03;76.93
76460;BME280;65299;46.084;18.762;2023-12-14T15:37:33;100281.09;;;9.03;77.04
76460;BME280;65299;46.084;18.762;2023-12-14T15:40:33;100286.75;;;8.85;77.49
76460;BME280;65299;46.084;18.762;2023-12-14T15:43:35;100284.19;;;8.95;77.29
76460;BME280;65299;46.084;18.762;2023-12-14T15:46:36;100290.97;;;8.81;77.58
76460;BME280;65299;46.084;18.762;2023-12-14T15:49:36;100299.38;;;8.78;77.65
76460;BME280;65299;46.084;18.762;2023-12-14T15:52:37;100296.50;;;8.79;77.52